x

Cape Cod - 24 Nm East Of Provincetown, Ma (44018) Wave Buoy

10:50pm - Mon 29th Jun 2015 All times are EDT. -4 hours from GMT.

  • Sig Wave height 5.2ft
  • Swell Direction
  • Peak Period 8s
  • Average Period 7s
  • Wind
    9mph, 11mph gusts
  • Sea Temp 58°f
  • Air Temp 60°f
  • Sea Pressure 1013.6mb
  • Cape Cod - 24 Nm East Of Provincetown, Ma
  • Cape Cod - 24 Nm East Of Provincetown, Ma

More Historic Weather Station data

Upgrade to MSW Pro to gain access to the past 30 days of data for over 8000 Wavebouys and Weather Stations around the globe.

Join Pro

Comparision Forecast

View Surf forecast
   
Mon 06/29 10:50pm 5ft 8s 7s 9 11 mph 1013.6mb 58f 60f
9:50pm 5.5ft 9s 7s 9
mph
1013.4mb 57f 59f
8:50pm 5ft 9s 6s 9 11 mph 1012.7mb 57f 60f
7:50pm 5ft 9s 6s 7 9 mph 1012.5mb 57f 62f
6:50pm 5ft 10s 7s 7 9 mph 1012.3mb 58f 61f
5:50pm 5ft 9s 7s 4 7 mph 1012mb 58f 60f
4:50pm 5ft 10s 7s  -  2 mph 1011.7mb 59f 60f
3:50pm 5ft 10s 7s  -  2 mph 1011.7mb 58f 59f
2:50pm 5ft 10s 7s 4 7 mph 1011.5mb 57f 57f
1:50pm 5ft 9s 7s 7 9 mph 1011.5mb 56f 56f
12:50pm 5ft 8s 7s 11 13 mph 1011.6mb 56f 56f
11:50am 5.5ft 10s 7s 11 13 mph 1011.3mb 56f 56f
10:50am 5.5ft 9s 7s 13 16 mph 1010.8mb 57f 56f
9:50am 5.5ft 9s 7s 9
mph
1010.8mb 57f 56f
8:50am 5.5ft 9s 7s 7 11 mph 1010.8mb 57f 55f
7:50am 6ft 8s 7s 4
mph
1010.7mb 57f 55f
6:50am 6ft 10s 7s 7 9 mph 1010.6mb 58f 55f
5:50am 6ft 9s 7s 4 9 mph 1010.4mb 57f 54f
4:50am 7ft 10s 7s 7 9 mph 1009.5mb 57f 55f
3:50am 6ft 10s 6s 7 11 mph 1009mb 57f 54f
2:50am 7ft 10s 7s 11 13 mph 1008.5mb 55f 54f
1:50am 7.5ft 8s 7s 16 20 mph 1007.9mb 55f 54f
12:50am 8ft 8s 7s 20 25 mph 1007.2mb 55f 53f
Sun 06/28 11:50pm 8.5ft 10s 7s 20 25 mph 1006.5mb 56f 55f
10:50pm 9.5ft 9s 8s 18 22 mph 1006.2mb 56f 55f
9:50pm 10ft 9s 8s 16 20 mph 1005.4mb 56f 56f
8:50pm 10ft 9s 8s 11 13 mph 1004.8mb 57f 58f
7:50pm 10ft 9s 7s 9 13 mph 1003.9mb 56f 58f
6:50pm 9.5ft 9s 8s 9 11 mph 1003.9mb 57f 58f
5:50pm 10ft 9s 8s 4 7 mph 1003.4mb 58f 59f
4:50pm 10ft 10s 7s 4 7 mph 1003.3mb 59f 59f
3:50pm 10.5ft 9s 7s 7 9 mph 1003.7mb 58f 59f
2:50pm 11ft 9s 7s 11 13 mph 1003.6mb 58f 59f
1:50pm 13ft 9s 7s 13 18 mph 1003.6mb 58f 59f
12:50pm 14ft 9s 7s 20 25 mph 1004mb 58f 60f
11:50am 11.5ft 8s 7s 25 31 mph 1004.7mb 58f 59f
10:50am 10.5ft 8s 6s 29 38 mph 1005.7mb 58f 59f
9:50am 11ft 7s 6s 36 45 mph 1005.9mb 58f 60f
8:50am 9.5ft 7s 6s 38 45 mph 1006.8mb 59f 60f
7:50am 9ft 7s 5s 34 45 mph 1008.6mb 59f 60f
6:50am 6.5ft 6s 5s 31 38 mph 1010mb 59f 61f
5:50am 5ft 5s 4s 29 36 mph 1010.7mb 59f 61f
4:50am 4.5ft 5s 4s 27 34 mph 1012.7mb 60f 61f
3:50am 3.5ft 5s 4s 25 29 mph 1014.3mb 60f 60f
2:50am 3.5ft 5s 4s 18 22 mph 1016.6mb 60f 60f
1:50am 3.5ft 5s 4s 18 20 mph 1017.5mb 60f 61f
12:50am 3.5ft 4s 4s 18 22 mph 1018.5mb 60f 61f
Sat 06/27 11:50pm 2.5ft 8s 4s 18 20 mph 1019.2mb 60f 61f
10:50pm 2.5ft 7s 4s 16 18 mph 1020.5mb 60f 61f
9:50pm 2.5ft 8s 4s 18 20 mph 1020.9mb 61f 61f
8:50pm 2ft 8s 4s 18 22 mph 1020.8mb 61f 61f
7:50pm 2ft 8s 5s 16 18 mph 1020.9mb 61f 61f
6:50pm 2ft 8s 5s 13 16 mph 1021.6mb 61f 61f
5:50pm 2ft 8s 5s 11 13 mph 1022.1mb 60f 60f
4:50pm 2ft 8s 5s 9 11 mph 1022.3mb 60f 60f
3:50pm 2ft 8s 6s 9 11 mph 1022.3mb 60f 61f
2:50pm 2ft 8s 6s 7 9 mph 1022.2mb 60f 61f
1:50pm 2ft 9s 7s 7 9 mph 1021.9mb 61f 61f
12:50pm 2ft 9s 7s 7
mph
1022.1mb 60f 61f
11:50am 2ft 9s 7s 4 7 mph 1022.3mb 61f 62f
10:50am 2ft 8s 7s 4
mph
1022.3mb 61f 61f
9:50am 1.6ft 8s 6s 4
mph
1022.4mb 61f 61f
8:50am 1.6ft 7s 6s 4
mph
1022.5mb 61f 61f
7:50am 1.3ft 8s 5s 2 4 mph 1022mb 61f 61f
6:50am 1.3ft 7s 5s 4
mph
1021mb 60f 61f
5:50am 1.3ft 8s 5s 4 7 mph 1020.8mb 60f 59f
4:50am 1.3ft 8s 4s 7
mph
1020mb 60f 59f
3:50am 1.3ft 9s 4s 4 7 mph 1019.5mb 60f 58f
2:50am 1.6ft 8s 4s 2 4 mph 1019.1mb 60f 58f
1:50am 1.6ft 8s 4s 2
mph
1019.1mb 59f 58f
12:50am 2ft 8s 4s 2 4 mph 1019.3mb 60f 59f
Fri 06/26 11:50pm 2ft 8s 4s 11 13 mph 1018.4mb 60f 59f
10:50pm 2ft 8s 4s 9 11 mph 1018.1mb 60f 59f
9:50pm 2ft 8s 4s 11 13 mph 1017.8mb 61f 60f
8:50pm 2ft 8s 4s 9 11 mph 1017.3mb 61f 59f
7:50pm 2ft 8s 4s 11 13 mph 1016.8mb 61f 59f
6:50pm 2.5ft 4s 4s 9 11 mph 1016.3mb 61f 60f
5:50pm 2.5ft 4s 4s 11 13 mph 1015.9mb 61f 60f
4:50pm 2.5ft 4s 4s 11 13 mph 1015.9mb 61f 59f
3:50pm 2.5ft 4s 4s 11 13 mph 1015.7mb 61f 59f
2:50pm 2.5ft 4s 4s 13 16 mph 1015.6mb 61f 59f
1:50pm 2.5ft 4s 4s 16 18 mph 1015.2mb 60f 59f
12:50pm 2.5ft 4s 4s 16 20 mph 1015.3mb 61f 59f
11:50am 2.5ft 4s 4s 16 20 mph 1015.6mb 61f 60f
10:50am 2.5ft 8s 4s 16 20 mph 1015.3mb 61f 60f
9:50am 2ft 8s 4s 16 18 mph 1015.2mb 61f 61f
8:50am 1.6ft 8s 4s 16 20 mph 1014.8mb 61f 61f
7:50am 1.3ft 7s 6s 13 16 mph 1014.5mb 61f 61f
6:50am 1.6ft 8s 6s 7
mph
1014mb 60f 61f
5:50am 1.6ft 8s 6s 4
mph
1014.1mb 61f 61f
4:50am 1.6ft 8s 5s 4
mph
1013.9mb 60f 61f
3:50am 1.6ft 8s 5s 2
mph
1013.7mb 60f 62f